Terminal Aerodrome Forecast
Issued by NWS

Home | Current Version | Previous Version | Graphics & Text | Print | Product List | Glossary On
Versions: 1 2 3 4 5 6 7 8 9 10 11 12 13 14 15 16 17 18 19
358
FTUS43 KFGF 030532
TAFBJI
TAF
KBJI 030532Z 0306/0406 36009KT P6SM BKN050
     FM031300 32008KT P6SM BKN120
     FM032100 26007KT P6SM BKN035=

USA.gov is the U.S. government's official web portal to all federal, state and local government web resources and services.